sensor_id;sensor_type;location;lat;lon;timestamp;pressure;altitude;pressure_sealevel;temperature;humidity
10060;BME280;5069;49.306;8.636;2023-02-19T00:00:32;101095.00;;;10.80;100.00
10060;BME280;5069;49.306;8.636;2023-02-19T00:03:35;101102.22;;;10.72;100.00
10060;BME280;5069;49.306;8.636;2023-02-19T00:06:37;101084.81;;;10.65;100.00
10060;BME280;5069;49.306;8.636;2023-02-19T00:09:38;101087.34;;;10.69;100.00
10060;BME280;5069;49.306;8.636;2023-02-19T00:12:40;101093.69;;;10.61;100.00
10060;BME280;5069;49.306;8.636;2023-02-19T00:15:41;101088.34;;;10.64;100.00
10060;BME280;5069;49.306;8.636;2023-02-19T00:18:43;101076.19;;;10.58;100.00
10060;BME280;5069;49.306;8.636;2023-02-19T00:21:46;101070.78;;;10.64;100.00
10060;BME280;5069;49.306;8.636;2023-02-19T00:24:48;101073.47;;;10.60;100.00
10060;BME280;5069;49.306;8.636;2023-02-19T00:27:49;101045.41;;;10.59;100.00
10060;BME280;5069;49.306;8.636;2023-02-19T00:30:51;101068.44;;;10.51;100.00
10060;BME280;5069;49.306;8.636;2023-02-19T00:33:56;101076.34;;;10.51;100.00
10060;BME280;5069;49.306;8.636;2023-02-19T00:36:57;101073.69;;;10.52;100.00
10060;BME280;5069;49.306;8.636;2023-02-19T00:39:59;101084.13;;;10.55;100.00
10060;BME280;5069;49.306;8.636;2023-02-19T00:43:01;101072.81;;;10.52;100.00
10060;BME280;5069;49.306;8.636;2023-02-19T00:46:02;101064.06;;;10.50;100.00
10060;BME280;5069;49.306;8.636;2023-02-19T00:49:05;101085.22;;;10.47;100.00
10060;BME280;5069;49.306;8.636;2023-02-19T00:52:07;101083.28;;;10.55;100.00
10060;BME280;5069;49.306;8.636;2023-02-19T00:55:09;101073.53;;;10.58;100.00
10060;BME280;5069;49.306;8.636;2023-02-19T00:58:11;101066.66;;;10.51;100.00
10060;BME280;5069;49.306;8.636;2023-02-19T01:01:12;101054.38;;;10.50;100.00
10060;BME280;5069;49.306;8.636;2023-02-19T01:04:14;101049.91;;;10.54;100.00
10060;BME280;5069;49.306;8.636;2023-02-19T01:07:16;101054.50;;;10.46;100.00
10060;BME280;5069;49.306;8.636;2023-02-19T01:10:18;101069.59;;;10.38;100.00
10060;BME280;5069;49.306;8.636;2023-02-19T01:13:19;101079.22;;;10.40;100.00
10060;BME280;5069;49.306;8.636;2023-02-19T01:16:21;101063.44;;;10.39;100.00
10060;BME280;5069;49.306;8.636;2023-02-19T01:19:27;101066.16;;;10.35;100.00
10060;BME280;5069;49.306;8.636;2023-02-19T01:22:29;101073.06;;;10.41;100.00
10060;BME280;5069;49.306;8.636;2023-02-19T01:25:30;101084.47;;;10.42;100.00
10060;BME280;5069;49.306;8.636;2023-02-19T01:28:32;101074.88;;;10.38;100.00
10060;BME280;5069;49.306;8.636;2023-02-19T01:31:34;101077.34;;;10.45;100.00
10060;BME280;5069;49.306;8.636;2023-02-19T01:34:36;101094.94;;;10.45;100.00
10060;BME280;5069;49.306;8.636;2023-02-19T01:37:37;101080.84;;;10.46;100.00
10060;BME280;5069;49.306;8.636;2023-02-19T01:40:39;101082.69;;;10.42;100.00
10060;BME280;5069;49.306;8.636;2023-02-19T01:46:57;101047.38;;;10.49;100.00
10060;BME280;5069;49.306;8.636;2023-02-19T01:49:59;101050.25;;;10.39;100.00
10060;BME280;5069;49.306;8.636;2023-02-19T01:53:02;101045.13;;;10.32;100.00
10060;BME280;5069;49.306;8.636;2023-02-19T01:56:06;101048.59;;;10.34;100.00
10060;BME280;5069;49.306;8.636;2023-02-19T01:59:08;101049.72;;;10.23;100.00
10060;BME280;5069;49.306;8.636;2023-02-19T02:02:10;101064.53;;;10.30;100.00
10060;BME280;5069;49.306;8.636;2023-02-19T02:05:19;101057.34;;;10.37;100.00
10060;BME280;5069;49.306;8.636;2023-02-19T02:08:25;101052.25;;;10.27;100.00
10060;BME280;5069;49.306;8.636;2023-02-19T02:11:50;101053.13;;;10.28;100.00
10060;BME280;5069;49.306;8.636;2023-02-19T02:14:52;101043.47;;;10.28;100.00
10060;BME280;5069;49.306;8.636;2023-02-19T02:21:51;101029.56;;;10.20;100.00
10060;BME280;5069;49.306;8.636;2023-02-19T02:32:12;101030.50;;;10.19;100.00
10060;BME280;5069;49.306;8.636;2023-02-19T02:35:16;101033.94;;;10.21;100.00
10060;BME280;5069;49.306;8.636;2023-02-19T02:38:23;101031.25;;;10.24;100.00
10060;BME280;5069;49.306;8.636;2023-02-19T02:41:27;101029.56;;;10.20;100.00
10060;BME280;5069;49.306;8.636;2023-02-19T02:44:35;101020.00;;;10.15;100.00
10060;BME280;5069;49.306;8.636;2023-02-19T02:47:41;101011.22;;;10.16;100.00
10060;BME280;5069;49.306;8.636;2023-02-19T02:51:01;101014.88;;;10.09;100.00
10060;BME280;5069;49.306;8.636;2023-02-19T02:54:22;101007.19;;;10.00;100.00
10060;BME280;5069;49.306;8.636;2023-02-19T02:57:46;101010.59;;;10.03;100.00
10060;BME280;5069;49.306;8.636;2023-02-19T03:00:53;100998.47;;;9.96;100.00
10060;BME280;5069;49.306;8.636;2023-02-19T03:04:23;101007.31;;;9.93;100.00
10060;BME280;5069;49.306;8.636;2023-02-19T03:07:32;101007.28;;;9.95;100.00
10060;BME280;5069;49.306;8.636;2023-02-19T03:10:49;101021.13;;;10.03;100.00
10060;BME280;5069;49.306;8.636;2023-02-19T03:13:58;101010.72;;;9.97;100.00
10060;BME280;5069;49.306;8.636;2023-02-19T03:17:32;101017.69;;;10.01;100.00
10060;BME280;5069;49.306;8.636;2023-02-19T03:20:56;101017.69;;;10.01;100.00
10060;BME280;5069;49.306;8.636;2023-02-19T03:23:58;101015.09;;;9.98;100.00
10060;BME280;5069;49.306;8.636;2023-02-19T03:27:20;101010.84;;;9.91;100.00
10060;BME280;5069;49.306;8.636;2023-02-19T03:30:30;101024.69;;;10.02;100.00
10060;BME280;5069;49.306;8.636;2023-02-19T03:33:33;101021.34;;;9.94;100.00
10060;BME280;5069;49.306;8.636;2023-02-19T03:36:43;101036.38;;;9.89;100.00
10060;BME280;5069;49.306;8.636;2023-02-19T03:39:46;101030.34;;;9.84;100.00
10060;BME280;5069;49.306;8.636;2023-02-19T03:43:09;101025.34;;;9.70;100.00
10060;BME280;5069;49.306;8.636;2023-02-19T03:46:24;101023.66;;;9.68;100.00
10060;BME280;5069;49.306;8.636;2023-02-19T03:49:47;101029.84;;;9.65;100.00
10060;BME280;5069;49.306;8.636;2023-02-19T03:53:00;101033.47;;;9.58;100.00
10060;BME280;5069;49.306;8.636;2023-02-19T03:56:07;101032.59;;;9.58;100.00
10060;BME280;5069;49.306;8.636;2023-02-19T03:59:20;101029.25;;;9.51;100.00
10060;BME280;5069;49.306;8.636;2023-02-19T04:02:41;101027.53;;;9.48;100.00
10060;BME280;5069;49.306;8.636;2023-02-19T04:05:51;101019.63;;;9.48;100.00
10060;BME280;5069;49.306;8.636;2023-02-19T04:08:56;101028.50;;;9.44;100.00
10060;BME280;5069;49.306;8.636;2023-02-19T04:12:00;101032.88;;;9.44;100.00
10060;BME280;5069;49.306;8.636;2023-02-19T04:15:05;101036.38;;;9.44;100.00
10060;BME280;5069;49.306;8.636;2023-02-19T04:18:13;101042.53;;;9.45;100.00
10060;BME280;5069;49.306;8.636;2023-02-19T04:21:18;101033.75;;;9.44;100.00
10060;BME280;5069;49.306;8.636;2023-02-19T04:24:24;101034.56;;;9.46;100.00
10060;BME280;5069;49.306;8.636;2023-02-19T04:27:28;101042.56;;;9.42;100.00
10060;BME280;5069;49.306;8.636;2023-02-19T04:30:29;101024.91;;;9.47;100.00
10060;BME280;5069;49.306;8.636;2023-02-19T04:33:31;101020.63;;;9.41;100.00
10060;BME280;5069;49.306;8.636;2023-02-19T04:36:33;101017.13;;;9.41;100.00
10060;BME280;5069;49.306;8.636;2023-02-19T04:39:34;101032.13;;;9.37;100.00
10060;BME280;5069;49.306;8.636;2023-02-19T04:42:35;101041.69;;;9.41;100.00
10060;BME280;5069;49.306;8.636;2023-02-19T04:45:37;101041.78;;;9.35;100.00
10060;BME280;5069;49.306;8.636;2023-02-19T04:48:39;101045.31;;;9.34;100.00
10060;BME280;5069;49.306;8.636;2023-02-19T04:51:40;101041.88;;;9.32;100.00
10060;BME280;5069;49.306;8.636;2023-02-19T04:54:42;101043.59;;;9.33;100.00
10060;BME280;5069;49.306;8.636;2023-02-19T04:57:43;101046.25;;;9.33;100.00
10060;BME280;5069;49.306;8.636;2023-02-19T05:00:45;101041.91;;;9.29;100.00
10060;BME280;5069;49.306;8.636;2023-02-19T05:03:46;101034.94;;;9.28;100.00
10060;BME280;5069;49.306;8.636;2023-02-19T05:06:48;101026.13;;;9.29;100.00
10060;BME280;5069;49.306;8.636;2023-02-19T05:09:50;101033.31;;;9.21;100.00
10060;BME280;5069;49.306;8.636;2023-02-19T05:12:53;101033.34;;;9.18;100.00
10060;BME280;5069;49.306;8.636;2023-02-19T05:16:04;101040.19;;;9.28;100.00
10060;BME280;5069;49.306;8.636;2023-02-19T05:19:06;101048.19;;;9.22;100.00
10060;BME280;5069;49.306;8.636;2023-02-19T05:22:07;101045.59;;;9.19;100.00
10060;BME280;5069;49.306;8.636;2023-02-19T05:25:09;101045.59;;;9.19;100.00
10060;BME280;5069;49.306;8.636;2023-02-19T05:28:10;101040.19;;;9.28;100.00
10060;BME280;5069;49.306;8.636;2023-02-19T05:31:18;101048.13;;;9.25;100.00
10060;BME280;5069;49.306;8.636;2023-02-19T05:34:20;101041.97;;;9.26;100.00
10060;BME280;5069;49.306;8.636;2023-02-19T05:37:22;101050.72;;;9.28;100.00
10060;BME280;5069;49.306;8.636;2023-02-19T05:40:23;101058.66;;;9.25;100.00
10060;BME280;5069;49.306;8.636;2023-02-19T05:43:25;101060.41;;;9.26;100.00
10060;BME280;5069;49.306;8.636;2023-02-19T05:46:28;101059.53;;;9.24;100.00
10060;BME280;5069;49.306;8.636;2023-02-19T05:49:30;101049.88;;;9.25;100.00
10060;BME280;5069;49.306;8.636;2023-02-19T05:52:31;101041.19;;;9.21;100.00
10060;BME280;5069;49.306;8.636;2023-02-19T05:55:34;101046.47;;;9.21;100.00
10060;BME280;5069;49.306;8.636;2023-02-19T05:58:36;101043.81;;;9.21;100.00
10060;BME280;5069;49.306;8.636;2023-02-19T06:01:37;101047.25;;;9.26;100.00
10060;BME280;5069;49.306;8.636;2023-02-19T06:04:39;101056.13;;;9.19;100.00
10060;BME280;5069;49.306;8.636;2023-02-19T06:07:40;101056.09;;;9.21;100.00
10060;BME280;5069;49.306;8.636;2023-02-19T06:10:43;101074.53;;;9.21;100.00
10060;BME280;5069;49.306;8.636;2023-02-19T06:13:44;101071.88;;;9.22;100.00
10060;BME280;5069;49.306;8.636;2023-02-19T06:16:46;101080.59;;;9.24;100.00
10060;BME280;5069;49.306;8.636;2023-02-19T06:19:48;101084.88;;;9.30;100.00
10060;BME280;5069;49.306;8.636;2023-02-19T06:22:49;101077.94;;;9.26;100.00
10060;BME280;5069;49.306;8.636;2023-02-19T06:25:51;101082.31;;;9.27;100.00
10060;BME280;5069;49.306;8.636;2023-02-19T06:28:52;101092.84;;;9.25;100.00
10060;BME280;5069;49.306;8.636;2023-02-19T06:31:54;101090.13;;;9.30;100.00
10060;BME280;5069;49.306;8.636;2023-02-19T06:34:56;101089.25;;;9.31;100.00
10060;BME280;5069;49.306;8.636;2023-02-19T06:37:57;101099.72;;;9.34;100.00
10060;BME280;5069;49.306;8.636;2023-02-19T06:41:00;101095.44;;;9.28;100.00
10060;BME280;5069;49.306;8.636;2023-02-19T06:44:02;101099.75;;;9.32;100.00
10060;BME280;5069;49.306;8.636;2023-02-19T06:47:03;101101.53;;;9.30;100.00
10060;BME280;5069;49.306;8.636;2023-02-19T06:50:05;101092.75;;;9.31;100.00
10060;BME280;5069;49.306;8.636;2023-02-19T06:53:06;101102.38;;;9.34;100.00
10060;BME280;5069;49.306;8.636;2023-02-19T06:56:39;101106.59;;;9.42;100.00
10060;BME280;5069;49.306;8.636;2023-02-19T06:59:41;101108.31;;;9.43;100.00
10060;BME280;5069;49.306;8.636;2023-02-19T07:02:42;101102.19;;;9.43;100.00
10060;BME280;5069;49.306;8.636;2023-02-19T07:05:44;101118.00;;;9.41;100.00
10060;BME280;5069;49.306;8.636;2023-02-19T07:08:45;101108.34;;;9.42;100.00
10060;BME280;5069;49.306;8.636;2023-02-19T07:11:46;101118.75;;;9.49;100.00
10060;BME280;5069;49.306;8.636;2023-02-19T07:14:48;101112.59;;;9.50;100.00
10060;BME280;5069;49.306;8.636;2023-02-19T07:17:49;101120.41;;;9.53;100.00
10060;BME280;5069;49.306;8.636;2023-02-19T07:20:51;101121.97;;;9.64;100.00
10060;BME280;5069;49.306;8.636;2023-02-19T07:23:52;101137.88;;;9.58;100.00
10060;BME280;5069;49.306;8.636;2023-02-19T07:26:53;101143.94;;;9.63;100.00
10060;BME280;5069;49.306;8.636;2023-02-19T07:29:55;101147.50;;;9.60;100.00
10060;BME280;5069;49.306;8.636;2023-02-19T07:32:56;101157.94;;;9.65;100.00
10060;BME280;5069;49.306;8.636;2023-02-19T07:35:58;101151.78;;;9.66;100.00
10060;BME280;5069;49.306;8.636;2023-02-19T07:38:59;101160.47;;;9.72;100.00
10060;BME280;5069;49.306;8.636;2023-02-19T07:42:01;101154.13;;;9.81;100.00
10060;BME280;5069;49.306;8.636;2023-02-19T07:45:05;101158.69;;;9.73;100.00
10060;BME280;5069;49.306;8.636;2023-02-19T07:48:07;101166.50;;;9.79;100.00
10060;BME280;5069;49.306;8.636;2023-02-19T07:51:13;101170.81;;;9.80;100.00
10060;BME280;5069;49.306;8.636;2023-02-19T07:54:17;101182.97;;;9.90;100.00
10060;BME280;5069;49.306;8.636;2023-02-19T07:57:18;101188.16;;;9.93;100.00
10060;BME280;5069;49.306;8.636;2023-02-19T08:00:20;101195.06;;;10.00;100.00
10060;BME280;5069;49.306;8.636;2023-02-19T08:03:22;101190.47;;;10.10;100.00
10060;BME280;5069;49.306;8.636;2023-02-19T08:06:23;101193.97;;;10.10;100.00
10060;BME280;5069;49.306;8.636;2023-02-19T08:09:25;101193.13;;;10.08;100.00
10060;BME280;5069;49.306;8.636;2023-02-19T08:12:26;101202.06;;;10.01;100.00
10060;BME280;5069;49.306;8.636;2023-02-19T08:15:48;101205.47;;;10.06;100.00
10060;BME280;5069;49.306;8.636;2023-02-19T08:18:50;101210.56;;;10.18;100.00
10060;BME280;5069;49.306;8.636;2023-02-19T08:21:51;101194.75;;;10.15;100.00
10060;BME280;5069;49.306;8.636;2023-02-19T08:24:54;101188.59;;;10.18;100.00
10060;BME280;5069;49.306;8.636;2023-02-19T08:27:55;101191.00;;;10.30;100.00
10060;BME280;5069;49.306;8.636;2023-02-19T08:31:02;101180.38;;;10.34;100.00
10060;BME280;5069;49.306;8.636;2023-02-19T08:34:04;101186.19;;;10.50;100.00
10060;BME280;5069;49.306;8.636;2023-02-19T08:37:06;101193.88;;;10.61;100.00
10060;BME280;5069;49.306;8.636;2023-02-19T08:40:07;101200.69;;;10.71;100.00
10060;BME280;5069;49.306;8.636;2023-02-19T08:43:12;101183.91;;;10.75;100.00
10060;BME280;5069;49.306;8.636;2023-02-19T08:46:14;101201.34;;;10.82;100.00
10060;BME280;5069;49.306;8.636;2023-02-19T08:49:16;101213.81;;;10.74;100.00
10060;BME280;5069;49.306;8.636;2023-02-19T08:52:17;101199.88;;;10.69;100.00
10060;BME280;5069;49.306;8.636;2023-02-19T08:55:19;101211.19;;;10.74;100.00
10060;BME280;5069;49.306;8.636;2023-02-19T08:58:21;101225.34;;;10.70;100.00
10060;BME280;5069;49.306;8.636;2023-02-19T09:01:23;101231.41;;;10.73;100.00
10060;BME280;5069;49.306;8.636;2023-02-19T09:04:24;101231.44;;;10.72;100.00
10060;BME280;5069;49.306;8.636;2023-02-19T09:07:26;101229.53;;;10.78;100.00
10060;BME280;5069;49.306;8.636;2023-02-19T09:10:28;101243.44;;;10.87;100.00
10060;BME280;5069;49.306;8.636;2023-02-19T09:13:29;101247.72;;;10.92;100.00
10060;BME280;5069;49.306;8.636;2023-02-19T09:16:33;101247.63;;;10.95;100.00
10060;BME280;5069;49.306;8.636;2023-02-19T09:19:35;101254.00;;;10.87;100.00
10060;BME280;5069;49.306;8.636;2023-02-19T09:22:37;101263.59;;;10.89;100.00
10060;BME280;5069;49.306;8.636;2023-02-19T09:25:38;101274.75;;;11.03;100.00
10060;BME280;5069;49.306;8.636;2023-02-19T09:28:40;101266.63;;;11.12;100.00
10060;BME280;5069;49.306;8.636;2023-02-19T09:31:42;101275.16;;;11.24;100.00
10060;BME280;5069;49.306;8.636;2023-02-19T09:34:44;101277.75;;;11.27;100.00
10060;BME280;5069;49.306;8.636;2023-02-19T09:37:45;101280.31;;;11.28;100.00
10060;BME280;5069;49.306;8.636;2023-02-19T09:40:47;101284.53;;;11.37;100.00
10060;BME280;5069;49.306;8.636;2023-02-19T09:43:50;101289.47;;;11.52;100.00
10060;BME280;5069;49.306;8.636;2023-02-19T09:46:52;101292.06;;;11.55;100.00
10060;BME280;5069;49.306;8.636;2023-02-19T09:50:08;101293.53;;;11.67;100.00
10060;BME280;5069;49.306;8.636;2023-02-19T09:53:15;101307.66;;;11.64;100.00
10060;BME280;5069;49.306;8.636;2023-02-19T09:56:17;101302.25;;;11.70;100.00
10060;BME280;5069;49.306;8.636;2023-02-19T09:59:23;101298.63;;;11.76;100.00
10060;BME280;5069;49.306;8.636;2023-02-19T10:02:25;101298.34;;;11.86;100.00
10060;BME280;5069;49.306;8.636;2023-02-19T10:05:28;101312.16;;;11.97;99.29
10060;BME280;5069;49.306;8.636;2023-02-19T10:08:32;101307.78;;;11.96;95.16
10060;BME280;5069;49.306;8.636;2023-02-19T10:11:33;101302.78;;;11.86;96.91
10060;BME280;5069;49.306;8.636;2023-02-19T10:14:42;101302.41;;;12.01;98.23
10060;BME280;5069;49.306;8.636;2023-02-19T10:17:44;101296.25;;;12.00;98.14
10060;BME280;5069;49.306;8.636;2023-02-19T10:20:47;101295.28;;;12.03;97.31
10060;BME280;5069;49.306;8.636;2023-02-19T10:23:58;101299.78;;;12.01;97.86
10060;BME280;5069;49.306;8.636;2023-02-19T10:27:00;101296.16;;;12.04;98.84
10060;BME280;5069;49.306;8.636;2023-02-19T10:30:02;101293.41;;;12.08;99.99
10060;BME280;5069;49.306;8.636;2023-02-19T10:33:15;101296.41;;;11.94;99.12
10060;BME280;5069;49.306;8.636;2023-02-19T10:40:10;101315.66;;;11.99;100.00
10060;BME280;5069;49.306;8.636;2023-02-19T10:43:03;101289.78;;;11.78;99.07
10060;BME280;5069;49.306;8.636;2023-02-19T10:46:13;101305.97;;;12.00;98.90
10060;BME280;5069;49.306;8.636;2023-02-19T10:49:30;101306.69;;;12.07;98.82
10060;BME280;5069;49.306;8.636;2023-02-19T10:52:33;101305.88;;;12.03;95.87
10060;BME280;5069;49.306;8.636;2023-02-19T10:55:36;101309.41;;;12.02;96.14
10060;BME280;5069;49.306;8.636;2023-02-19T10:58:38;101317.31;;;12.04;95.64
10060;BME280;5069;49.306;8.636;2023-02-19T11:01:59;101317.31;;;12.04;96.38
10060;BME280;5069;49.306;8.636;2023-02-19T11:05:10;101324.09;;;12.14;95.31
10060;BME280;5069;49.306;8.636;2023-02-19T11:08:20;101322.28;;;12.16;93.40
10060;BME280;5069;49.306;8.636;2023-02-19T11:11:27;101333.63;;;12.19;92.75
10060;BME280;5069;49.306;8.636;2023-02-19T11:14:31;101322.81;;;12.30;92.82
10060;BME280;5069;49.306;8.636;2023-02-19T11:17:34;101340.09;;;12.43;91.06
10060;BME280;5069;49.306;8.636;2023-02-19T11:20:35;101346.28;;;12.42;86.51
10060;BME280;5069;49.306;8.636;2023-02-19T11:23:44;101354.19;;;12.43;86.32
10060;BME280;5069;49.306;8.636;2023-02-19T11:26:46;101359.47;;;12.43;85.70
10060;BME280;5069;49.306;8.636;2023-02-19T11:29:48;101380.41;;;12.53;84.46
10060;BME280;5069;49.306;8.636;2023-02-19T11:32:49;101377.84;;;12.48;84.34
10060;BME280;5069;49.306;8.636;2023-02-19T11:48:52;101354.56;;;12.30;87.95
10060;BME280;5069;49.306;8.636;2023-02-19T11:52:05;101350.06;;;12.32;89.76
10060;BME280;5069;49.306;8.636;2023-02-19T11:58:56;101333.63;;;12.53;89.37
10060;BME280;5069;49.306;8.636;2023-02-19T12:02:17;101348.59;;;12.54;88.14
10060;BME280;5069;49.306;8.636;2023-02-19T12:05:30;101356.94;;;12.39;88.78
10060;BME280;5069;49.306;8.636;2023-02-19T12:08:45;101359.75;;;12.33;90.86
10060;BME280;5069;49.306;8.636;2023-02-19T12:12:22;101366.81;;;12.32;90.89
10060;BME280;5069;49.306;8.636;2023-02-19T12:16:08;101360.06;;;12.19;93.19
10060;BME280;5069;49.306;8.636;2023-02-19T12:22:58;101343.63;;;12.42;91.67
10060;BME280;5069;49.306;8.636;2023-02-19T12:29:37;101355.72;;;12.84;88.50
10060;BME280;5069;49.306;8.636;2023-02-19T12:33:04;101343.72;;;12.71;89.57
10060;BME280;5069;49.306;8.636;2023-02-19T12:36:39;101371.75;;;12.78;87.23
10060;BME280;5069;49.306;8.636;2023-02-19T12:40:55;101383.13;;;12.82;86.92
10060;BME280;5069;49.306;8.636;2023-02-19T12:43:22;101360.84;;;12.91;85.17
10060;BME280;5069;49.306;8.636;2023-02-19T12:46:31;101352.88;;;12.92;83.71
10060;BME280;5069;49.306;8.636;2023-02-19T12:49:41;101338.28;;;13.08;82.45
10060;BME280;5069;49.306;8.636;2023-02-19T12:52:50;101333.47;;;13.22;80.70
10060;BME280;5069;49.306;8.636;2023-02-19T12:55:55;101346.38;;;13.04;80.24
10060;BME280;5069;49.306;8.636;2023-02-19T12:59:01;101333.97;;;13.35;79.55
10060;BME280;5069;49.306;8.636;2023-02-19T13:02:15;101331.50;;;13.29;77.42
10060;BME280;5069;49.306;8.636;2023-02-19T13:05:34;101326.66;;;13.15;78.77
10060;BME280;5069;49.306;8.636;2023-02-19T13:08:44;101320.81;;;13.03;79.72
10060;BME280;5069;49.306;8.636;2023-02-19T13:12:16;101329.09;;;12.91;80.11
10060;BME280;5069;49.306;8.636;2023-02-19T13:18:41;101343.13;;;12.62;82.37
10060;BME280;5069;49.306;8.636;2023-02-19T13:21:46;101333.53;;;12.58;83.44
10060;BME280;5069;49.306;8.636;2023-02-19T13:25:11;101324.47;;;12.66;84.46
10060;BME280;5069;49.306;8.636;2023-02-19T13:35:21;101318.16;;;13.03;80.71
10060;BME280;5069;49.306;8.636;2023-02-19T13:38:24;101322.53;;;13.04;79.60
10060;BME280;5069;49.306;8.636;2023-02-19T13:41:29;101330.03;;;12.88;79.72
10060;BME280;5069;49.306;8.636;2023-02-19T13:44:33;101316.03;;;12.84;79.25
10060;BME280;5069;49.306;8.636;2023-02-19T13:47:59;101306.44;;;12.80;78.57
10060;BME280;5069;49.306;8.636;2023-02-19T13:54:20;101322.50;;;12.74;78.60
10060;BME280;5069;49.306;8.636;2023-02-19T14:00:52;101321.34;;;12.83;77.55
10060;BME280;5069;49.306;8.636;2023-02-19T14:04:17;101322.31;;;12.80;78.17
10060;BME280;5069;49.306;8.636;2023-02-19T14:17:04;101316.56;;;12.65;80.02
10060;BME280;5069;49.306;8.636;2023-02-19T14:23:34;101322.66;;;12.68;80.81
10060;BME280;5069;49.306;8.636;2023-02-19T14:26:37;101325.13;;;12.74;80.67
10060;BME280;5069;49.306;8.636;2023-02-19T14:29:40;101330.91;;;12.58;80.58
10060;BME280;5069;49.306;8.636;2023-02-19T14:32:42;101336.28;;;12.53;80.91
10060;BME280;5069;49.306;8.636;2023-02-19T14:35:48;101338.28;;;12.45;81.32
10060;BME280;5069;49.306;8.636;2023-02-19T14:38:57;101346.28;;;12.42;81.82
10060;BME280;5069;49.306;8.636;2023-02-19T14:45:14;101358.59;;;12.43;81.75
10060;BME280;5069;49.306;8.636;2023-02-19T14:48:22;101365.88;;;12.35;83.06
10060;BME280;5069;49.306;8.636;2023-02-19T14:51:32;101359.50;;;12.42;82.89
10060;BME280;5069;49.306;8.636;2023-02-19T14:54:42;101364.03;;;12.37;83.11
10060;BME280;5069;49.306;8.636;2023-02-19T14:57:46;101370.41;;;12.30;83.24
10060;BME280;5069;49.306;8.636;2023-02-19T15:00:48;101373.00;;;12.31;83.14
10060;BME280;5069;49.306;8.636;2023-02-19T15:03:53;101372.88;;;12.36;82.30
10060;BME280;5069;49.306;8.636;2023-02-19T15:06:55;101381.75;;;12.35;82.65
10060;BME280;5069;49.306;8.636;2023-02-19T15:10:00;101384.44;;;12.32;82.32
10060;BME280;5069;49.306;8.636;2023-02-19T15:13:06;101394.22;;;12.30;81.81
10060;BME280;5069;49.306;8.636;2023-02-19T15:16:17;101388.09;;;12.26;82.13
10060;BME280;5069;49.306;8.636;2023-02-19T15:19:19;101380.19;;;12.25;82.35
10060;BME280;5069;49.306;8.636;2023-02-19T15:22:24;101392.63;;;12.23;82.00
10060;BME280;5069;49.306;8.636;2023-02-19T15:25:35;101391.88;;;12.16;83.11
10060;BME280;5069;49.306;8.636;2023-02-19T15:28:36;101386.63;;;12.15;83.31
10060;BME280;5069;49.306;8.636;2023-02-19T15:31:52;101389.22;;;12.18;82.98
10060;BME280;5069;49.306;8.636;2023-02-19T15:34:59;101389.13;;;12.21;82.40
10060;BME280;5069;49.306;8.636;2023-02-19T15:38:01;101390.78;;;12.25;81.80
10060;BME280;5069;49.306;8.636;2023-02-19T15:41:03;101396.16;;;12.22;81.67
10060;BME280;5069;49.306;8.636;2023-02-19T15:44:30;101404.97;;;12.21;81.89
10060;BME280;5069;49.306;8.636;2023-02-19T15:47:43;101405.38;;;12.06;82.79
10060;BME280;5069;49.306;8.636;2023-02-19T15:50:52;101407.09;;;12.07;82.68
10060;BME280;5069;49.306;8.636;2023-02-19T15:54:02;101415.78;;;12.12;82.84
10060;BME280;5069;49.306;8.636;2023-02-19T15:57:14;101407.16;;;12.04;82.97
10060;BME280;5069;49.306;8.636;2023-02-19T16:00:36;101408.91;;;12.05;83.46
10060;BME280;5069;49.306;8.636;2023-02-19T16:03:38;101412.72;;;11.91;84.46
10060;BME280;5069;49.306;8.636;2023-02-19T16:06:52;101423.03;;;12.02;83.52
10060;BME280;5069;49.306;8.636;2023-02-19T16:10:11;101411.84;;;11.91;84.90
10060;BME280;5069;49.306;8.636;2023-02-19T16:13:22;101417.13;;;11.92;85.04
10060;BME280;5069;49.306;8.636;2023-02-19T16:16:27;101417.28;;;11.85;86.23
10060;BME280;5069;49.306;8.636;2023-02-19T16:19:42;101417.25;;;11.86;86.76
10060;BME280;5069;49.306;8.636;2023-02-19T16:22:44;101415.34;;;11.93;86.08
10060;BME280;5069;49.306;8.636;2023-02-19T16:25:46;101423.38;;;11.88;86.54
10060;BME280;5069;49.306;8.636;2023-02-19T16:28:50;101420.75;;;11.88;87.08
10060;BME280;5069;49.306;8.636;2023-02-19T16:32:04;101423.66;;;11.76;89.58
10060;BME280;5069;49.306;8.636;2023-02-19T16:35:34;101426.28;;;11.78;90.22
10060;BME280;5069;49.306;8.636;2023-02-19T16:38:37;101432.41;;;11.78;91.27
10060;BME280;5069;49.306;8.636;2023-02-19T16:44:40;101423.25;;;11.53;98.31
10060;BME280;5069;49.306;8.636;2023-02-19T16:47:42;101437.72;;;11.34;100.00
10060;BME280;5069;49.306;8.636;2023-02-19T16:50:51;101431.84;;;11.21;100.00
10060;BME280;5069;49.306;8.636;2023-02-19T16:53:53;101433.53;;;11.24;100.00
10060;BME280;5069;49.306;8.636;2023-02-19T16:56:54;101429.34;;;11.12;100.00
10060;BME280;5069;49.306;8.636;2023-02-19T16:59:55;101423.19;;;11.13;100.00
10060;BME280;5069;49.306;8.636;2023-02-19T17:02:59;101431.31;;;11.02;100.00
10060;BME280;5069;49.306;8.636;2023-02-19T17:06:02;101435.50;;;11.12;100.00
10060;BME280;5069;49.306;8.636;2023-02-19T17:09:05;101443.38;;;11.15;100.00
10060;BME280;5069;49.306;8.636;2023-02-19T17:12:11;101445.03;;;11.19;100.00
10060;BME280;5069;49.306;8.636;2023-02-19T17:15:13;101452.00;;;11.22;100.00
10060;BME280;5069;49.306;8.636;2023-02-19T17:18:15;101451.19;;;11.22;100.00
10060;BME280;5069;49.306;8.636;2023-02-19T17:21:25;101460.22;;;11.08;100.00
10060;BME280;5069;49.306;8.636;2023-02-19T17:24:26;101470.53;;;11.21;100.00
10060;BME280;5069;49.306;8.636;2023-02-19T17:27:28;101476.94;;;11.07;100.00
10060;BME280;5069;49.306;8.636;2023-02-19T17:30:31;101484.75;;;11.13;100.00
10060;BME280;5069;49.306;8.636;2023-02-19T17:33:32;101482.41;;;10.97;100.00
10060;BME280;5069;49.306;8.636;2023-02-19T17:36:34;101480.78;;;10.88;100.00
10060;BME280;5069;49.306;8.636;2023-02-19T17:39:35;101485.25;;;10.86;100.00